• Join FlightAware (Why Join?)
  • Login
  • US Flag 
Rudolph Flight #1: Arrived! 
08:07AM EST


 

Airport Tracker/Info


-or-


 

Live Flight TrackerFlight Track Log ✈ AAY894 ✈ 26-Jun-2014 ✈ KPIE - KIAG

Flight Track Log - Related Links

Times and Time Zones

All times are in EDT time to prevent confusion due to time zone crossing. See the AAY894 flight status page for this flight to view local times or setup timezone preferences in your user account.

Time Position Orientation Groundspeed Altitude Reporting Facility
EDT Latitude Longitude Course Direction KTS MPH feet Rate Location/Type
07:42AM 27.9167 -82.6833 10° North 149 171 500  Level Tampa TRACON
07:43AM 28.0000 -82.6667 10° North 243 280 3,500 2,340 Climbing Tampa TRACON
07:44AM 28.0667 -82.6333 24° Northeast 258 297 6,200 2,700 Climbing Tampa TRACON
07:45AM 28.1000 -82.5667 60° Northeast 272 313 8,900 1,680 Climbing Tampa TRACON
07:48AM 28.2328 -82.4850 28° Northeast 240 276 11,900 1,260 Climbing Jacksonville Center
07:49AM 28.3206 -82.5083 347° North 269 310 13,300 1,500 Climbing Jacksonville Center
07:50AM 28.4167 -82.5361 346° North 311 358 14,900 1,560 Climbing Jacksonville Center
07:51AM 28.5189 -82.5667 345° North 351 404 16,500 1,800 Climbing Jacksonville Center
07:52AM 28.6275 -82.5969 346° North 376 433 18,500 1,980 Climbing Jacksonville Center
07:53AM 28.7486 -82.6178 351° North 391 450 20,500 1,800 Climbing Jacksonville Center
07:54AM 28.8633 -82.6367 352° North 401 461 22,100 1,500 Climbing Jacksonville Center
07:55AM 28.9742 -82.6600 350° North 428 493 23,600 1,440 Climbing Jacksonville Center
07:56AM 29.0931 -82.6836 350° North 434 499 25,000 1,320 Climbing Jacksonville Center
07:57AM 29.2164 -82.7069 351° North 434 499 26,300 1,620 Climbing Jacksonville Center
07:58AM 29.3394 -82.7044 North 440 506 28,300 1,740 Climbing Jacksonville Center
07:59AM 29.4606 -82.6875 North 440 506 29,800 900 Climbing Jacksonville Center
08:00AM 29.5836 -82.6753 North 440 506 30,200 420 Climbing Jacksonville Center
08:01AM 29.7025 -82.6653 North 440 506 30,700 300 Climbing Jacksonville Center
08:02AM 29.8217 -82.6581 North 429 494 30,900 60 Climbing Jacksonville Center
08:03AM 29.9406 -82.6481 North 429 494 30,900  Level Jacksonville Center
08:04AM 30.0594 -82.6358 North 424 488 31,000  Climbing Jacksonville Center
08:05AM 30.1828 -82.6258 North 424 488 31,000  Level Jacksonville Center
08:06AM 30.2975 -82.6158 North 424 488 31,000  Level Jacksonville Center
08:07AM 30.4208 -82.6058 North 424 488 31,000 -60 Level Jacksonville Center
08:08AM 30.5397 -82.5936 North 424 488 30,900  Descending Jacksonville Center
08:09AM 30.6608 -82.5833 North 424 488 31,000  Climbing Jacksonville Center
08:10AM 30.7819 -82.5758 North 424 488 30,900  Descending Jacksonville Center
08:11AM 30.9050 -82.5633 North 424 488 31,000  Climbing Jacksonville Center
08:12AM 31.0261 -82.5531 North 424 488 31,000  Level Jacksonville Center
08:13AM 31.1492 -82.5431 North 430 495 31,000 -60 Level Jacksonville Center
08:14AM 31.2703 -82.5328 North 430 495 30,900  Descending Jacksonville Center
08:15AM 31.3914 -82.5178 North 435 501 31,000  Climbing Jacksonville Center
08:16AM 31.5125 -82.5100 North 435 501 31,000  Level Jacksonville Center
08:17AM 31.7075 -82.4839 North 443 510 31,000 360 Level Atlanta Center
08:18AM 31.8264 -82.4622 North 443 510 31,900 900 Climbing Atlanta Center
08:19AM 31.9469 -82.4431 North 438 504 32,800 540 Climbing Atlanta Center
08:20AM 32.0678 -82.4261 North 433 498 33,000 60 Climbing Atlanta Center
08:21AM 32.1908 -82.4067 North 433 498 33,000  Level Atlanta Center
08:22AM 32.3094 -82.3897 North 433 498 33,000  Level Atlanta Center
08:23AM 32.4303 -82.3678 North 438 504 33,000  Level Atlanta Center
08:24AM 32.5489 -82.3483 North 438 504 33,000  Level Atlanta Center
08:25AM 32.6719 -82.3264 North 438 504 33,000  Level Atlanta Center
08:26AM 32.7928 -82.3092 North 438 504 33,000  Level Atlanta Center
08:27AM 32.9114 -82.2919 North 438 504 33,000  Level Atlanta Center
08:28AM 33.0300 -82.2697 North 438 504 33,000  Level Atlanta Center
08:29AM 33.1531 -82.2525 North 432 497 33,000  Level Atlanta Center
08:30AM 33.2717 -82.2325 North 432 497 33,000  Level Atlanta Center
08:31AM 33.3944 -82.2125 North 432 497 33,000  Level Atlanta Center
08:32AM 33.5153 -82.1925 North 432 497 33,000  Level Atlanta Center
08:33AM 33.6236 -82.1703 10° North 432 497 33,000  Level Atlanta Center
08:34AM 33.7464 -82.1525 North 438 504 33,000  Level Atlanta Center
08:35AM 33.8672 -82.1325 North 438 504 33,000  Level Atlanta Center
08:36AM 33.9858 -82.1122 North 438 504 33,000  Level Atlanta Center
08:37AM 34.1064 -82.0919 North 438 504 33,000  Level Atlanta Center
08:38AM 34.2292 -82.0717 North 438 504 33,000  Level Atlanta Center
08:39AM 34.3481 -82.0511 North 438 504 33,000  Level Atlanta Center
08:40AM 34.4686 -82.0306 North 438 504 33,000  Level Atlanta Center
08:41AM 34.5872 -82.0000 12° North 438 504 33,000  Level Atlanta Center
08:42AM 34.7075 -81.9694 12° North 438 504 33,000  Level Atlanta Center
08:43AM 34.8406 -81.9358 12° North 438 504 33,000  Level Atlanta Center
08:44AM 34.9631 -81.9047 12° North 438 504 33,000  Level Atlanta Center
08:45AM 35.0858 -81.8711 13° North 443 510 33,000  Level Atlanta Center
08:46AM 35.2083 -81.8400 12° North 448 516 33,000  Level Atlanta Center
08:47AM 35.3161 -81.8092 13° North 448 516 33,000  Level Atlanta Center
08:48AM 35.4386 -81.7778 12° North 448 516 33,000  Level Atlanta Center
08:49AM 35.5633 -81.7436 13° North 448 516 33,000  Level Atlanta Center
08:50AM 35.6878 -81.7094 13° North 448 516 33,000  Level Atlanta Center
08:51AM 35.8103 -81.6778 12° North 448 516 33,000  Level Atlanta Center
08:52AM 35.9347 -81.6433 13° North 448 516 33,000  Level Atlanta Center
08:53AM 36.0592 -81.6064 13° North 448 516 33,000  Level Atlanta Center
08:54AM 36.1817 -81.5744 12° North 448 516 33,000  Level Atlanta Center
08:55AM 36.3061 -81.5397 13° North 448 516 33,000  Level Atlanta Center
08:56AM 36.4303 -81.5022 14° North 448 516 33,000  Level Atlanta Center
08:57AM 36.5528 -81.4725 11° North 448 516 33,000  Level Atlanta Center
08:58AM 36.6772 -81.4350 14° North 448 516 33,000  Level Atlanta Center
09:00AM 36.8919 -81.3747 13° North 455 524 33,000  Level Indianapolis Center
09:01AM 37.0150 -81.3400 13° North 455 524 33,000  Level Indianapolis Center
09:02AM 37.1417 -81.3033 13° North 455 524 33,000  Level Indianapolis Center
09:03AM 37.2667 -81.2683 13° North 456 525 33,000  Level Indianapolis Center
09:04AM 37.3889 -81.2333 13° North 456 525 33,000  Level Indianapolis Center
09:05AM 37.5139 -81.1989 12° North 456 525 33,000  Level Indianapolis Center
09:06AM 37.6628 -81.1567 13° North 456 525 33,000  Level Indianapolis Center
09:07AM 37.7875 -81.1208 13° North 456 525 33,000  Level Indianapolis Center
09:08AM 37.9217 -81.0828 13° North 457 526 33,000  Level Indianapolis Center
09:09AM 38.0453 -81.0458 13° North 457 526 33,000  Level Indianapolis Center
09:10AM 38.1700 -81.0097 13° North 457 526 33,000  Level Indianapolis Center
09:11AM 38.2953 -80.9744 12° North 458 527 33,000  Level Indianapolis Center
09:12AM 38.4206 -80.9381 13° North 459 528 33,000  Level Indianapolis Center
09:13AM 38.5697 -80.8928 13° North 459 528 33,000  Level Indianapolis Center
09:14AM 38.6956 -80.8572 12° North 461 531 33,000  Level Indianapolis Center
09:15AM 38.8203 -80.8197 13° North 462 532 33,000  Level Indianapolis Center
09:16AM 38.9458 -80.7825 13° North 462 532 33,000  Level Indianapolis Center
09:17AM 39.0703 -80.7461 13° North 462 532 33,000  Level Indianapolis Center
09:18AM 39.1975 -80.7083 13° North 468 539 33,000  Level Indianapolis Center
09:19AM 39.3464 -80.6642 13° North 462 532 33,000  Level Indianapolis Center
09:20AM 39.4361 -80.6375 13° North 464 534 33,000  Level Cleveland Center
09:21AM 39.5619 -80.5997 13° North 463 533 33,000  Level Cleveland Center
09:22AM 39.6881 -80.5614 13° North 463 533 33,000 -540 Level Cleveland Center
09:23AM 39.8142 -80.5233 13° North 464 534 32,000 -1,020 Descending Cleveland Center
09:24AM 39.9428 -80.4844 13° North 467 537 31,000 -540 Descending Cleveland Center
09:25AM 40.0681 -80.4464 13° North 466 536 31,000  Level Cleveland Center
09:26AM 40.2203 -80.4000 13° North 465 535 31,000  Level Cleveland Center
09:27AM 40.3486 -80.3611 13° North 465 535 31,000  Level Cleveland Center
09:28AM 40.4853 -80.3197 13° North 471 542 31,000  Level Cleveland Center
09:29AM 40.6114 -80.2792 14° North 471 542 31,000  Level Cleveland Center
09:31AM 40.7344 -80.2397 14° North 459 528 31,000  Level Cleveland Center
09:32AM 40.8592 -80.1872 18° North 471 542 31,000  Level Cleveland Center
09:33AM 40.9808 -80.1017 28° Northeast 491 565 31,000 -480 Level Cleveland Center
09:34AM 41.1050 -80.0325 23° Northeast 488 562 30,100 -1,020 Descending Cleveland Center
09:35AM 41.2511 -79.9525 22° Northeast 480 552 29,000 -1,020 Descending Cleveland Center
09:36AM 41.3736 -79.8872 22° Northeast 478 550 28,000 -1,020 Descending Cleveland Center
09:37AM 41.4947 -79.8217 22° Northeast 468 539 27,000 -960 Descending Cleveland Center
09:38AM 41.6128 -79.7586 22° Northeast 461 531 26,000 -960 Descending Cleveland Center
09:39AM 41.7306 -79.6922 23° Northeast 459 528 25,000 -1,020 Descending Cleveland Center
09:40AM 41.8653 -79.6200 22° Northeast 437 503 24,000 -540 Descending Cleveland Center
09:41AM 41.9778 -79.5592 22° Northeast 436 502 23,900 -900 Descending Cleveland Center
09:42AM 42.0886 -79.4969 23° Northeast 436 502 22,200 -1,980 Descending Cleveland Center
09:43AM 42.2000 -79.4364 22° Northeast 435 501 19,900 -2,220 Descending Cleveland Center
09:44AM 42.3058 -79.3769 23° Northeast 413 475 17,700 -2,400 Descending Cleveland Center
09:45AM 42.4261 -79.3097 22° Northeast 395 455 15,000 -2,340 Descending Cleveland Center
09:46AM 42.5222 -79.2564 22° Northeast 381 438 12,900 -1,500 Descending Cleveland Center
09:47AM 42.6117 -79.2056 23° Northeast 352 405 11,900 -1,020 Descending Cleveland Center
09:48AM 42.6906 -79.1606 23° Northeast 311 358 10,800 -1,620 Descending Cleveland Center
09:49AM 42.7675 -79.1131 24° Northeast 284 327 8,600 -1,980 Descending Cleveland Center
09:50AM 42.8342 -79.0531 33° Northeast 280 322 6,800 -1,740 Descending Cleveland Center
09:51AM 42.8933 -78.9844 40° Northeast 275 316 5,100 -900 Descending Cleveland Center
09:52AM 42.9514 -78.9167 41° Northeast 268 308 5,000 -360 Descending Cleveland Center
09:53AM 43.0114 -78.8483 40° Northeast 268 308 4,400 -840 Descending Cleveland Center
09:54AM 43.0392 -78.7711 64° Northeast 228 262 3,300 -720 Descending Cleveland Center
09:55AM 43.0761 -78.7231 44° Northeast 210 242 3,000 -480 Descending Cleveland Center
09:56AM 43.1083 -78.7786 308° West 204 235 2,400 -720 Descending Cleveland Center
09:57AM 43.1092 -78.8444 271° West 178 205 1,600 -480 Descending Cleveland Center
09:58AM 43.1089 -78.9031 270° West 163 188 1,500 -120 Descending Cleveland Center